createdAt,value
2023-05-24T00:00:26.349Z,97008.94
2023-05-24T00:02:53.685Z,97007.03
2023-05-24T00:05:20.796Z,97012.25
2023-05-24T00:07:51.683Z,97016.84
2023-05-24T00:10:21.775Z,97009.22
2023-05-24T00:12:49.283Z,97006.63
2023-05-24T00:15:16.917Z,97011.88
2023-05-24T00:17:44.262Z,97005.09
2023-05-24T00:20:12.824Z,96994.31
2023-05-24T00:22:41.018Z,96995.97
2023-05-24T00:25:11.278Z,96996.22
2023-05-24T00:27:40.949Z,96996.78
2023-05-24T00:30:11.992Z,96987.41
2023-05-24T00:32:38.739Z,96985.88
2023-05-24T00:35:06.223Z,96982.97
2023-05-24T00:37:33.898Z,96987.56
2023-05-24T00:40:01.171Z,96990.06
2023-05-24T00:42:28.637Z,96986.03
2023-05-24T00:44:56.141Z,96987.03
2023-05-24T00:47:23.986Z,96979.41
2023-05-24T00:49:51.647Z,96976.09
2023-05-24T00:52:19.760Z,96976.63
2023-05-24T00:54:54.064Z,96972.50
2023-05-24T00:57:24.625Z,96983.03
2023-05-24T00:59:53.088Z,96984.69
2023-05-24T01:02:21.026Z,96979.69
2023-05-24T01:04:49.574Z,96984.25
2023-05-24T01:07:27.072Z,96984.13
2023-05-24T01:10:06.377Z,96985.94
2023-05-24T01:13:04.994Z,96996.59
2023-05-24T01:15:48.147Z,96985.38
2023-05-24T01:18:33.100Z,96985.53
2023-05-24T01:21:14.835Z,96986.78
2023-05-24T01:23:56.075Z,96982.09
2023-05-24T01:26:37.771Z,96985.53
2023-05-24T01:29:09.017Z,96976.13
2023-05-24T01:31:37.193Z,96988.00
2023-05-24T01:34:07.439Z,96986.09
2023-05-24T01:36:35.477Z,96987.34
2023-05-24T01:39:06.766Z,96987.75
2023-05-24T01:41:44.508Z,96987.06
2023-05-24T01:44:45.059Z,96983.06
2023-05-24T01:47:35.466Z,96987.47
2023-05-24T01:50:36.546Z,96993.81
2023-05-24T01:53:18.976Z,96993.00
2023-05-24T01:55:52.200Z,96987.59
2023-05-24T01:58:25.322Z,96992.59
2023-05-24T02:00:54.297Z,96988.88
2023-05-24T02:03:32.799Z,96993.56
2023-05-24T02:06:03.132Z,96993.84
2023-05-24T02:08:30.315Z,96999.06
2023-05-24T02:10:58.002Z,96992.56
2023-05-24T02:13:25.601Z,97002.66
2023-05-24T02:15:56.425Z,96996.31
2023-05-24T02:18:23.738Z,97008.47
2023-05-24T02:20:51.811Z,97004.59
2023-05-24T02:23:19.077Z,97016.22
2023-05-24T02:25:45.890Z,97010.66
2023-05-24T02:28:12.659Z,97014.13
2023-05-24T02:30:40.097Z,97011.09
2023-05-24T02:33:11.437Z,97013.72
2023-05-24T02:35:38.726Z,97004.88
2023-05-24T02:38:06.842Z,97009.13
2023-05-24T02:40:37.431Z,97006.38
2023-05-24T02:43:04.408Z,97014.50
2023-05-24T02:45:31.923Z,97005.25
2023-05-24T02:47:59.138Z,97013.13
2023-05-24T02:50:26.074Z,97007.88
2023-05-24T02:52:52.964Z,97011.31
2023-05-24T02:55:19.965Z,97005.91
2023-05-24T02:57:48.243Z,97004.84
2023-05-24T03:00:15.824Z,97010.91
2023-05-24T03:02:42.905Z,97008.44
2023-05-24T03:05:10.045Z,97008.53
2023-05-24T03:07:37.007Z,97010.34
2023-05-24T03:10:04.527Z,97013.41
2023-05-24T03:12:31.458Z,97010.91
2023-05-24T03:15:01.288Z,97005.66
2023-05-24T03:17:31.355Z,97007.03
2023-05-24T03:20:02.756Z,97006.78
2023-05-24T03:22:29.775Z,97010.97
2023-05-24T03:24:57.895Z,97010.81
2023-05-24T03:27:27.519Z,97015.66
2023-05-24T03:29:54.605Z,97012.34
2023-05-24T03:32:23.998Z,97007.38
2023-05-24T03:34:58.253Z,97004.63
2023-05-24T03:37:48.122Z,97009.44
2023-05-24T03:43:59.171Z,97012.09
2023-05-24T03:46:26.333Z,97012.94
2023-05-24T03:48:56.522Z,97018.16
2023-05-24T03:51:40.361Z,97023.59
2023-05-24T03:54:07.534Z,97019.81
2023-05-24T03:56:34.655Z,97024.00
2023-05-24T03:59:04.310Z,97023.84
2023-05-24T04:01:34.693Z,97012.03
2023-05-24T04:04:12.872Z,97012.31
2023-05-24T04:06:53.286Z,97022.31
2023-05-24T04:09:23.258Z,97018.09
2023-05-24T04:11:50.418Z,97015.59
2023-05-24T04:14:20.808Z,97024.31
2023-05-24T04:16:48.553Z,97022.13
2023-05-24T04:19:16.088Z,97030.56
2023-05-24T04:21:46.612Z,97024.84
2023-05-24T04:24:13.526Z,97023.06
2023-05-24T04:26:40.567Z,97022.69
2023-05-24T04:29:08.001Z,97028.44
2023-05-24T04:31:35.304Z,97023.56
2023-05-24T04:34:03.324Z,97018.94
2023-05-24T04:36:33.587Z,97022.91
2023-05-24T04:39:06.890Z,97023.50
2023-05-24T04:41:35.585Z,97014.19
2023-05-24T04:44:05.737Z,97018.22
2023-05-24T04:46:36.512Z,97014.59
2023-05-24T04:49:03.917Z,97012.97
2023-05-24T04:51:31.047Z,97016.78
2023-05-24T04:54:09.687Z,97016.59
2023-05-24T04:56:38.876Z,97025.81
2023-05-24T04:59:09.900Z,97008.25
2023-05-24T05:01:36.884Z,97016.25
2023-05-24T05:04:06.620Z,97016.09
2023-05-24T05:06:38.190Z,97008.72
2023-05-24T05:09:13.425Z,97009.44
2023-05-24T05:11:41.058Z,97007.28
2023-05-24T05:14:11.830Z,97011.25
2023-05-24T05:16:39.327Z,97011.31
2023-05-24T05:19:06.512Z,97007.00
2023-05-24T05:21:34.053Z,97007.13
2023-05-24T05:24:01.747Z,97015.84
2023-05-24T05:26:28.925Z,97019.25
2023-05-24T05:28:56.132Z,97014.84
2023-05-24T05:31:24.874Z,97019.94
2023-05-24T05:33:54.478Z,97015.94
2023-05-24T05:36:21.265Z,97022.56
2023-05-24T05:38:48.017Z,97013.63
2023-05-24T05:41:14.783Z,97030.50
2023-05-24T05:43:41.861Z,97029.75
2023-05-24T05:46:08.814Z,97027.78
2023-05-24T05:48:35.807Z,97030.69
2023-05-24T05:51:02.781Z,97038.28
2023-05-24T05:53:29.607Z,97033.97
2023-05-24T05:55:56.432Z,97033.13
2023-05-24T05:58:23.230Z,97033.91
2023-05-24T06:00:50.355Z,97026.47
2023-05-24T06:03:17.604Z,97023.72
2023-05-24T06:05:46.989Z,97024.22
2023-05-24T06:08:13.973Z,97024.03
2023-05-24T06:10:41.003Z,97031.81
2023-05-24T06:13:07.871Z,97029.94
2023-05-24T06:15:35.394Z,97028.34
2023-05-24T06:18:05.362Z,97024.34
2023-05-24T06:20:32.224Z,97022.84
2023-05-24T06:22:59.225Z,97018.38
2023-05-24T06:25:26.208Z,97022.53
2023-05-24T06:27:53.068Z,97027.31
2023-05-24T06:30:21.156Z,97022.31
2023-05-24T06:32:48.156Z,97022.13
2023-05-24T06:35:15.073Z,97029.16
2023-05-24T06:37:44.803Z,97031.19
2023-05-24T06:40:15.241Z,97029.88
2023-05-24T06:42:42.032Z,97016.06
2023-05-24T06:45:09.565Z,97024.03
2023-05-24T06:47:37.106Z,97019.09
2023-05-24T06:50:04.773Z,97018.63
2023-05-24T06:52:31.517Z,97012.16
2023-05-24T06:54:59.092Z,97012.25
2023-05-24T06:57:27.070Z,97020.25
2023-05-24T06:59:53.878Z,97017.16
2023-05-24T07:02:27.309Z,97014.56
2023-05-24T07:04:58.330Z,97007.75
2023-05-24T07:07:25.791Z,97013.63
2023-05-24T07:09:52.616Z,97009.63
2023-05-24T07:12:19.711Z,97013.41
2023-05-24T07:14:49.297Z,97013.63
2023-05-24T07:17:16.452Z,97008.22
2023-05-24T07:19:46.583Z,97010.63
2023-05-24T07:22:13.704Z,97012.22
2023-05-24T07:24:40.550Z,97017.53
2023-05-24T07:27:07.602Z,97013.06
2023-05-24T07:29:34.394Z,97014.44
2023-05-24T07:32:01.260Z,97017.66
2023-05-24T07:34:30.355Z,97020.16
2023-05-24T07:37:01.014Z,97018.06
2023-05-24T07:39:28.111Z,97013.06
2023-05-24T07:41:55.135Z,97008.09
2023-05-24T07:44:22.453Z,97015.19
2023-05-24T07:46:49.201Z,97008.09
2023-05-24T07:49:16.348Z,97018.84
2023-05-24T07:51:43.303Z,97018.25
2023-05-24T07:54:10.027Z,97020.88
2023-05-24T07:56:38.038Z,97017.19
2023-05-24T07:59:05.002Z,97014.88
2023-05-24T08:01:32.743Z,97022.31
2023-05-24T08:04:08.954Z,97017.75
2023-05-24T08:06:36.470Z,97021.75
2023-05-24T08:09:04.825Z,97013.16
2023-05-24T08:11:31.601Z,97018.19
2023-05-24T08:13:58.706Z,97018.03
2023-05-24T08:16:29.195Z,97020.03
2023-05-24T08:18:56.604Z,97020.31
2023-05-24T08:21:23.713Z,97015.00
2023-05-24T08:23:53.313Z,97021.00
2023-05-24T08:26:29.934Z,97014.50
2023-05-24T08:28:56.970Z,97019.84
2023-05-24T08:31:24.001Z,97025.44
2023-05-24T08:33:51.723Z,97021.91
2023-05-24T08:36:27.571Z,97030.78
2023-05-24T08:38:54.321Z,97023.38
2023-05-24T08:41:21.591Z,97023.63
2023-05-24T08:43:48.540Z,97030.97
2023-05-24T08:46:17.446Z,97029.34
2023-05-24T08:48:48.779Z,97025.38
2023-05-24T08:51:16.999Z,97026.59
2023-05-24T08:53:49.257Z,97029.03
2023-05-24T08:56:19.515Z,97026.13
2023-05-24T08:58:51.028Z,97025.00
2023-05-24T09:01:18.919Z,97027.22
2023-05-24T09:03:47.608Z,97024.84
2023-05-24T09:06:20.534Z,97030.63
2023-05-24T09:08:53.397Z,97037.97
2023-05-24T09:11:23.853Z,97030.97
2023-05-24T09:13:56.817Z,97032.88
2023-05-24T09:16:25.465Z,97040.66
2023-05-24T09:18:53.019Z,97037.31
2023-05-24T09:21:20.827Z,97036.78
2023-05-24T09:23:50.366Z,97039.94
2023-05-24T09:26:18.251Z,97043.03
2023-05-24T09:28:47.196Z,97034.03
2023-05-24T09:31:14.611Z,97037.06
2023-05-24T09:33:42.315Z,97043.25
2023-05-24T09:36:23.073Z,97035.75
2023-05-24T09:39:13.777Z,97027.44
2023-05-24T09:41:44.069Z,97030.59
2023-05-24T09:47:39.332Z,97028.38
2023-05-24T09:52:59.659Z,97034.09
2023-05-24T09:55:31.883Z,97035.75
2023-05-24T09:58:18.329Z,97025.75
2023-05-24T10:00:46.057Z,97024.03
2023-05-24T10:03:15.754Z,97025.78
2023-05-24T10:05:52.829Z,97032.66
2023-05-24T10:08:23.183Z,97025.31
2023-05-24T10:10:51.297Z,97023.31
2023-05-24T10:13:19.628Z,97031.34
2023-05-24T10:15:47.247Z,97030.41
2023-05-24T10:18:14.852Z,97023.88
2023-05-24T10:20:48.716Z,97022.03
2023-05-24T10:23:24.804Z,97019.47
2023-05-24T10:26:18.629Z,97016.44
2023-05-24T10:28:50.148Z,97014.28
2023-05-24T10:31:43.497Z,97021.00
2023-05-24T10:34:12.590Z,97014.16
2023-05-24T10:36:43.235Z,97009.19
2023-05-24T10:39:46.328Z,97003.34
2023-05-24T10:42:18.694Z,97004.66
2023-05-24T10:44:46.257Z,97004.66
2023-05-24T10:47:19.872Z,97004.84
2023-05-24T10:49:58.062Z,96993.81
2023-05-24T10:52:40.306Z,96995.91
2023-05-24T10:55:12.055Z,96992.78
2023-05-24T10:57:42.396Z,96986.59
2023-05-24T11:00:47.904Z,96991.69
2023-05-24T11:03:10.090Z,96985.31
2023-05-24T11:05:51.962Z,96983.91
2023-05-24T11:08:33.324Z,96977.31
2023-05-24T11:11:22.506Z,96986.75
2023-05-24T11:14:00.206Z,96974.00
2023-05-24T11:16:40.609Z,96979.97
2023-05-24T11:19:25.289Z,96977.28
2023-05-24T11:21:54.015Z,96983.41
2023-05-24T11:24:22.381Z,96979.28
2023-05-24T11:26:51.272Z,96977.84
2023-05-24T11:29:21.326Z,96974.06
2023-05-24T11:31:49.812Z,96985.66
2023-05-24T11:34:18.015Z,96975.34
2023-05-24T11:36:46.447Z,96966.75
2023-05-24T11:39:18.009Z,96963.53
2023-05-24T11:41:45.062Z,96963.13
2023-05-24T11:44:18.147Z,96953.94
2023-05-24T11:46:45.805Z,96958.59
2023-05-24T11:49:15.483Z,96953.16
2023-05-24T11:51:47.253Z,96958.00
2023-05-24T11:54:15.380Z,96953.50
2023-05-24T11:56:43.381Z,96953.78
2023-05-24T11:59:42.631Z,96942.34
2023-05-24T12:02:13.588Z,96944.34
2023-05-24T12:04:41.725Z,96945.41
2023-05-24T12:07:13.658Z,96944.13
2023-05-24T12:09:50.617Z,96938.44
2023-05-24T12:12:33.922Z,96938.72
2023-05-24T12:15:11.113Z,96930.69
2023-05-24T12:17:39.489Z,96928.63
2023-05-24T12:20:11.020Z,96922.91
2023-05-24T12:22:54.445Z,96920.41
2023-05-24T12:25:24.258Z,96923.00
2023-05-24T12:27:57.218Z,96925.66
2023-05-24T12:30:29.637Z,96915.31
2023-05-24T12:32:58.811Z,96912.66
2023-05-24T12:35:26.752Z,96911.22
2023-05-24T12:38:02.894Z,96917.84
2023-05-24T12:40:34.778Z,96909.78
2023-05-24T12:43:04.570Z,96915.41
2023-05-24T12:45:32.358Z,96914.91
2023-05-24T12:48:03.489Z,96921.16
2023-05-24T12:50:31.038Z,96913.25
2023-05-24T12:53:33.125Z,96915.69
2023-05-24T12:56:01.036Z,96913.44
2023-05-24T12:58:27.813Z,96912.00
2023-05-24T13:01:04.305Z,96914.91
2023-05-24T13:03:31.885Z,96917.34
2023-05-24T13:06:01.003Z,96911.53
2023-05-24T13:08:30.280Z,96913.09
2023-05-24T13:11:04.185Z,96904.84
2023-05-24T13:13:41.897Z,96899.50
2023-05-24T13:16:11.533Z,96907.72
2023-05-24T13:18:48.786Z,96898.25
2023-05-24T13:21:17.118Z,96905.97
2023-05-24T13:23:52.848Z,96892.59
2023-05-24T13:26:26.326Z,96898.63
2023-05-24T13:31:33.805Z,96898.06
2023-05-24T13:34:20.706Z,96893.84
2023-05-24T13:36:49.677Z,96900.22
2023-05-24T13:39:21.450Z,96898.38
2023-05-24T13:41:50.459Z,96900.69
2023-05-24T13:44:21.069Z,96892.69
2023-05-24T13:46:48.519Z,96894.66
2023-05-24T13:49:16.581Z,96887.28
2023-05-24T13:51:44.671Z,96899.78
2023-05-24T13:54:18.542Z,96893.09
2023-05-24T13:56:49.624Z,96885.41
2023-05-24T14:02:28.687Z,96901.91
2023-05-24T14:05:05.215Z,96885.81
2023-05-24T14:07:53.664Z,96891.28
2023-05-24T14:10:31.076Z,96896.56
2023-05-24T14:13:16.251Z,96888.41
2023-05-24T14:15:55.459Z,96886.56
2023-05-24T14:18:24.839Z,96889.09
2023-05-24T14:20:55.226Z,96888.69
2023-05-24T14:23:26.451Z,96890.88
2023-05-24T14:26:06.831Z,96890.06
2023-05-24T14:28:34.585Z,96889.28
2023-05-24T14:31:07.583Z,96894.69
2023-05-24T14:33:36.786Z,96892.47
2023-05-24T14:36:04.376Z,96888.94
2023-05-24T14:38:42.653Z,96886.94
2023-05-24T14:41:10.787Z,96891.78
2023-05-24T14:43:41.444Z,96890.31
2023-05-24T14:46:12.566Z,96880.50
2023-05-24T14:48:44.248Z,96874.75
2023-05-24T14:51:15.122Z,96883.84
2023-05-24T14:53:46.354Z,96879.13
2023-05-24T14:56:16.672Z,96875.44
2023-05-24T14:58:45.036Z,96876.50
2023-05-24T15:01:13.576Z,96882.75
2023-05-24T15:03:41.622Z,96876.41
2023-05-24T15:06:13.952Z,96874.81
2023-05-24T15:08:44.723Z,96875.63
2023-05-24T15:11:18.519Z,96879.50
2023-05-24T15:13:45.541Z,96874.81
2023-05-24T15:16:13.071Z,96871.56
2023-05-24T15:18:40.111Z,96869.91
2023-05-24T15:21:07.036Z,96876.06
2023-05-24T15:23:34.831Z,96861.69
2023-05-24T15:26:02.143Z,96871.09
2023-05-24T15:28:29.148Z,96873.84
2023-05-24T15:30:58.981Z,96869.78
2023-05-24T15:33:26.762Z,96866.13
2023-05-24T15:35:58.454Z,96876.94
2023-05-24T15:38:25.309Z,96883.47
2023-05-24T15:40:56.540Z,96889.59
2023-05-24T15:43:25.813Z,96879.28
2023-05-24T15:45:53.696Z,96883.66
2023-05-24T15:48:20.969Z,96887.75
2023-05-24T15:51:25.638Z,96887.47
2023-05-24T15:53:35.642Z,96888.00
2023-05-24T15:56:04.755Z,96892.50
2023-05-24T15:58:34.904Z,96894.03
2023-05-24T16:01:02.298Z,96896.38
2023-05-24T16:03:32.328Z,96890.69
2023-05-24T16:05:59.578Z,96886.44
2023-05-24T16:08:31.529Z,96900.38
2023-05-24T16:10:58.955Z,96904.19
2023-05-24T16:13:27.821Z,96904.44
2023-05-24T16:15:58.876Z,96915.53
2023-05-24T16:18:29.114Z,96908.72
2023-05-24T16:20:58.039Z,96917.13
2023-05-24T16:23:30.217Z,96913.81
2023-05-24T16:26:06.081Z,96916.69
2023-05-24T16:28:33.090Z,96911.50
2023-05-24T16:31:02.564Z,96905.97
2023-05-24T16:33:29.625Z,96909.06
2023-05-24T16:35:57.035Z,96915.41
2023-05-24T16:38:27.864Z,96912.28
2023-05-24T16:40:54.975Z,96913.09
2023-05-24T16:43:30.839Z,96913.91
2023-05-24T16:45:58.032Z,96929.72
2023-05-24T16:48:32.019Z,96925.34
2023-05-24T16:51:00.493Z,96932.94
2023-05-24T16:53:27.875Z,96934.78
2023-05-24T16:55:56.522Z,96935.50
2023-05-24T16:58:25.176Z,96947.09
2023-05-24T17:00:56.108Z,96950.66
2023-05-24T17:03:28.951Z,96948.66
2023-05-24T17:06:02.028Z,96958.22
2023-05-24T17:08:31.573Z,96956.59
2023-05-24T17:10:59.164Z,96965.28
2023-05-24T17:13:28.786Z,96966.34
2023-05-24T17:15:57.549Z,96975.16
2023-05-24T17:18:29.362Z,96969.19
2023-05-24T17:21:01.473Z,96976.19
2023-05-24T17:23:33.574Z,96977.22
2023-05-24T17:26:03.191Z,96971.84
2023-05-24T17:28:34.339Z,96981.84
2023-05-24T17:31:05.056Z,96975.63
2023-05-24T17:33:32.474Z,96979.75
2023-05-24T17:36:04.930Z,96977.44
2023-05-24T17:38:37.585Z,96974.09
2023-05-24T17:41:07.869Z,96973.25
2023-05-24T17:43:35.687Z,96989.25
2023-05-24T17:46:04.174Z,96991.63
2023-05-24T17:48:32.729Z,96988.63
2023-05-24T17:51:01.335Z,96989.38
2023-05-24T17:53:34.666Z,96982.41
2023-05-24T17:56:03.527Z,96991.72
2023-05-24T17:58:33.220Z,96993.84
2023-05-24T18:01:00.915Z,97001.38
2023-05-24T18:03:27.664Z,97001.69
2023-05-24T18:05:54.554Z,97002.19
2023-05-24T18:08:22.352Z,97001.31
2023-05-24T18:10:49.152Z,97007.09
2023-05-24T18:13:16.862Z,97005.31
2023-05-24T18:15:47.009Z,97007.09
2023-05-24T18:18:19.501Z,97012.41
2023-05-24T18:20:47.287Z,97023.34
2023-05-24T18:23:14.307Z,97018.34
2023-05-24T18:25:44.335Z,97034.59
2023-05-24T18:28:17.318Z,97028.72
2023-05-24T18:30:45.195Z,97036.06
2023-05-24T18:33:13.074Z,97042.94
2023-05-24T18:35:40.422Z,97045.97
2023-05-24T18:38:11.697Z,97046.97
2023-05-24T18:40:39.619Z,97045.56
2023-05-24T18:43:07.394Z,97050.97
2023-05-24T18:46:02.993Z,97058.00
2023-05-24T18:48:31.755Z,97059.09
2023-05-24T18:50:59.198Z,97063.47
2023-05-24T18:53:35.538Z,97062.19
2023-05-24T18:56:08.961Z,97062.91
2023-05-24T18:58:37.796Z,97066.09
2023-05-24T19:01:09.760Z,97063.16
2023-05-24T19:03:39.917Z,97061.66
2023-05-24T19:06:08.102Z,97074.94
2023-05-24T19:08:44.113Z,97070.66
2023-05-24T19:11:12.049Z,97076.03
2023-05-24T19:13:40.265Z,97078.03
2023-05-24T19:16:17.951Z,97082.38
2023-05-24T19:18:46.262Z,97084.91
2023-05-24T19:21:13.829Z,97087.28
2023-05-24T19:23:40.856Z,97087.81
2023-05-24T19:26:11.951Z,97096.13
2023-05-24T19:28:42.275Z,97094.16
2023-05-24T19:31:10.029Z,97105.13
2023-05-24T19:33:48.457Z,97097.81
2023-05-24T19:36:24.261Z,97096.06
2023-05-24T19:38:51.154Z,97096.91
2023-05-24T19:41:18.757Z,97097.28
2023-05-24T19:43:49.216Z,97115.13
2023-05-24T19:46:16.697Z,97117.78
2023-05-24T19:48:44.099Z,97116.19
2023-05-24T19:51:13.619Z,97116.81
2023-05-24T19:53:40.476Z,97110.88
2023-05-24T19:56:07.601Z,97115.69
2023-05-24T19:58:35.310Z,97108.56
2023-05-24T20:01:02.315Z,97116.22
2023-05-24T20:03:29.802Z,97113.59
2023-05-24T20:05:58.533Z,97117.91
2023-05-24T20:08:39.750Z,97112.97
2023-05-24T20:11:07.792Z,97127.22
2023-05-24T20:13:36.044Z,97123.22
2023-05-24T20:16:14.971Z,97130.38
2023-05-24T20:18:50.390Z,97133.56
2023-05-24T20:21:20.299Z,97133.88
2023-05-24T20:23:57.775Z,97137.06
2023-05-24T20:26:27.343Z,97132.91
2023-05-24T20:29:01.300Z,97137.19
2023-05-24T20:31:29.964Z,97132.41
2023-05-24T20:33:57.385Z,97129.59
2023-05-24T20:36:25.232Z,97128.59
2023-05-24T20:38:55.558Z,97129.97
2023-05-24T20:41:23.552Z,97125.81
2023-05-24T20:44:02.047Z,97132.31
2023-05-24T20:46:29.715Z,97126.66
2023-05-24T20:48:57.701Z,97128.47
2023-05-24T20:51:25.745Z,97122.69
2023-05-24T20:53:54.031Z,97127.34
2023-05-24T20:56:23.386Z,97118.03
2023-05-24T20:58:53.402Z,97123.50
2023-05-24T21:01:21.309Z,97133.94
2023-05-24T21:03:53.547Z,97136.25
2023-05-24T21:06:21.147Z,97126.00
2023-05-24T21:08:51.697Z,97132.44
2023-05-24T21:11:19.868Z,97139.06
2023-05-24T21:13:47.334Z,97137.03
2023-05-24T21:16:14.778Z,97129.75
2023-05-24T21:18:42.482Z,97120.97
2023-05-24T21:21:13.291Z,97131.25
2023-05-24T21:23:40.583Z,97132.41
2023-05-24T21:26:11.272Z,97128.75
2023-05-24T21:28:38.790Z,97126.97
2023-05-24T21:31:07.380Z,97130.38
2023-05-24T21:33:38.139Z,97126.91
2023-05-24T21:36:05.650Z,97128.91
2023-05-24T21:38:33.044Z,97129.22
2023-05-24T21:41:00.656Z,97129.56
2023-05-24T21:43:31.343Z,97123.75
2023-05-24T21:45:58.545Z,97131.50
2023-05-24T21:48:26.476Z,97128.00
2023-05-24T21:50:53.611Z,97134.94
2023-05-24T21:53:23.623Z,97130.75
2023-05-24T21:55:51.200Z,97126.47
2023-05-24T21:58:18.453Z,97128.44
2023-05-24T22:00:45.742Z,97130.75
2023-05-24T22:03:13.113Z,97131.72
2023-05-24T22:05:42.881Z,97138.81
2023-05-24T22:08:13.870Z,97134.19
2023-05-24T22:10:41.285Z,97136.13
2023-05-24T22:13:09.129Z,97144.50
2023-05-24T22:15:36.750Z,97127.97
2023-05-24T22:18:04.073Z,97132.09
2023-05-24T22:20:32.560Z,97133.84
2023-05-24T22:23:00.366Z,97129.56
2023-05-24T22:25:27.832Z,97128.91
2023-05-24T22:27:58.696Z,97131.38
2023-05-24T22:30:26.760Z,97134.50
2023-05-24T22:32:54.037Z,97130.16
2023-05-24T22:35:24.278Z,97139.88
2023-05-24T22:37:51.848Z,97140.03
2023-05-24T22:40:19.310Z,97142.69
2023-05-24T22:42:46.564Z,97141.34
2023-05-24T22:45:14.540Z,97146.28
2023-05-24T22:47:41.980Z,97148.28
2023-05-24T22:50:10.322Z,97153.84
2023-05-24T22:52:42.971Z,97149.34
2023-05-24T22:55:13.940Z,97149.53
2023-05-24T22:57:42.083Z,97153.75
2023-05-24T23:00:10.057Z,97150.06
2023-05-24T23:02:37.482Z,97153.03
2023-05-24T23:05:05.798Z,97149.16
2023-05-24T23:07:37.881Z,97151.66
2023-05-24T23:10:05.920Z,97149.47
2023-05-24T23:12:33.960Z,97146.00
2023-05-24T23:15:06.006Z,97140.72
2023-05-24T23:17:33.142Z,97142.84
2023-05-24T23:20:00.876Z,97146.53
2023-05-24T23:22:31.913Z,97144.38
2023-05-24T23:25:00.145Z,97151.63
2023-05-24T23:27:28.213Z,97147.94
2023-05-24T23:29:55.887Z,97153.34
2023-05-24T23:32:25.793Z,97146.13
2023-05-24T23:34:53.657Z,97149.06
2023-05-24T23:37:21.483Z,97138.63
2023-05-24T23:39:55.125Z,97144.44
2023-05-24T23:42:27.150Z,97147.75
2023-05-24T23:45:17.552Z,97148.34
2023-05-24T23:47:45.157Z,97142.19
2023-05-24T23:50:17.783Z,97144.28
2023-05-24T23:52:47.216Z,97146.47
2023-05-24T23:55:23.194Z,97144.00
2023-05-24T23:57:54.324Z,97141.81
